Time;durP1;ratioP1;P1;durP2;ratioP2;P2;SDS_P1;SDS_P2;PMS_P1;PMS_P2;Temp;Humidity;BMP_temperature;BMP_pressure;BME280_temperature;BME280_humidity;BME280_pressure;Samples;Min_cycle;Max_cycle;Signal;HPM_P1;HPM_P2
2021/01/12 00:01:47;;;;;;;25.92;13.55;;;1.20;95.30;;;;;;5051842;28;20120;-73
2021/01/12 00:04:13;;;;;;;25.60;11.95;;;1.20;95.10;;;;;;5053207;28;20025;-72
2021/01/12 00:06:40;;;;;;;25.70;10.95;;;1.20;95.30;;;;;;5051161;28;20032;-72
2021/01/12 00:09:06;;;;;;;26.17;13.10;;;1.20;95.10;;;;;;5052996;28;20024;-72
2021/01/12 00:11:31;;;;;;;20.60;10.70;;;1.20;95.30;;;;;;5053052;28;20025;-74
2021/01/12 00:13:57;;;;;;;28.17;14.50;;;1.30;95.20;;;;;;5052892;28;20546;-72
2021/01/12 00:16:23;;;;;;;23.50;12.07;;;1.20;95.30;;;;;;5051019;28;20033;-72
2021/01/12 00:18:49;;;;;;;24.23;12.20;;;1.30;95.10;;;;;;5051479;28;20024;-73
2021/01/12 00:21:15;;;;;;;26.73;12.90;;;1.20;95.00;;;;;;5052673;28;20040;-72
2021/01/12 00:23:41;;;;;;;24.17;12.57;;;1.30;95.00;;;;;;5052660;28;20021;-73
2021/01/12 00:26:07;;;;;;;19.42;9.55;;;1.30;95.10;;;;;;5050819;28;20025;-73
2021/01/12 00:28:34;;;;;;;19.90;9.48;;;1.30;95.30;;;;;;5051228;28;20017;-72
2021/01/12 00:31:03;;;;;;;25.65;13.07;;;1.40;95.00;;;;;;5052578;28;20522;-74
2021/01/12 00:33:28;;;;;;;22.80;11.95;;;1.40;94.80;;;;;;5052596;28;20040;-73
2021/01/12 00:35:54;;;;;;;24.95;11.68;;;1.30;95.60;;;;;;5052313;28;20033;-74
2021/01/12 00:38:19;;;;;;;25.65;13.07;;;1.30;95.30;;;;;;5050498;28;20025;-72
2021/01/12 00:40:45;;;;;;;25.05;13.70;;;1.40;95.00;;;;;;5052380;28;20036;-73
2021/01/12 00:43:10;;;;;;;22.95;11.98;;;1.40;95.10;;;;;;5051206;28;20103;-73
2021/01/12 00:45:36;;;;;;;23.45;11.90;;;1.40;94.70;;;;;;5051125;28;20023;-74
2021/01/12 00:48:01;;;;;;;20.38;9.25;;;1.40;94.70;;;;;;5050573;28;20163;-72
2021/01/12 00:50:27;;;;;;;20.42;9.15;;;1.40;94.60;;;;;;5052137;28;20057;-73
2021/01/12 00:52:52;;;;;;;26.83;12.90;;;1.30;94.90;;;;;;5052267;28;20395;-73
2021/01/12 00:55:18;;;;;;;17.80;9.13;;;1.20;95.50;;;;;;5052067;28;20395;-73
2021/01/12 00:57:43;;;;;;;24.75;12.98;;;1.30;95.00;;;;;;5051633;28;20029;-73
2021/01/12 01:00:09;;;;;;;24.80;13.27;;;1.20;95.10;;;;;;5050591;28;20029;-73
2021/01/12 01:02:35;;;;;;;24.42;12.98;;;1.10;95.50;;;;;;5051993;28;20431;-73
2021/01/12 01:05:01;;;;;;;22.27;11.75;;;1.00;96.30;;;;;;5051912;28;20025;-73
2021/01/12 01:07:26;;;;;;;23.95;12.07;;;1.10;95.60;;;;;;5051323;28;20387;-74
2021/01/12 01:09:52;;;;;;;19.70;9.95;;;1.20;95.20;;;;;;5051906;28;20025;-73
2021/01/12 01:12:17;;;;;;;25.45;11.32;;;1.20;95.10;;;;;;5050532;28;20029;-73
2021/01/12 01:14:43;;;;;;;22.05;11.10;;;1.20;95.00;;;;;;5050620;28;20043;-72
2021/01/12 01:17:08;;;;;;;19.23;9.45;;;1.20;95.00;;;;;;5049863;28;20071;-72
2021/01/12 01:19:34;;;;;;;20.48;10.02;;;1.20;95.00;;;;;;5050460;28;20187;-72
2021/01/12 01:21:59;;;;;;;21.45;11.65;;;1.20;95.10;;;;;;5051707;28;20104;-73
2021/01/12 01:24:25;;;;;;;23.08;9.32;;;1.10;95.40;;;;;;5050411;28;20021;-72
2021/01/12 01:26:55;;;;;;;23.15;12.13;;;1.10;95.10;;;;;;5051074;28;20066;-75
2021/01/12 01:29:21;;;;;;;21.35;9.98;;;1.10;94.90;;;;;;5051545;28;20104;-72
2021/01/12 01:31:46;;;;;;;22.65;12.30;;;1.30;94.70;;;;;;5051745;28;20103;-72
2021/01/12 01:34:12;;;;;;;23.05;12.20;;;1.30;94.50;;;;;;5051769;28;20077;-72
2021/01/12 01:36:37;;;;;;;24.80;13.90;;;1.20;95.00;;;;;;5051146;28;20041;-73
2021/01/12 01:39:04;;;;;;;23.30;12.45;;;1.10;95.50;;;;;;5051563;28;20025;-74
2021/01/12 01:41:30;;;;;;;24.85;12.60;;;1.00;95.90;;;;;;5051431;28;20032;-72
2021/01/12 01:43:55;;;;;;;22.13;12.05;;;1.00;96.10;;;;;;5050340;28;20104;-72
2021/01/12 01:46:21;;;;;;;26.45;13.40;;;0.90;96.40;;;;;;5049222;28;20380;-72
2021/01/12 01:48:47;;;;;;;24.58;11.98;;;1.00;96.50;;;;;;5050091;28;20017;-72
2021/01/12 01:51:14;;;;;;;24.10;12.77;;;1.00;96.00;;;;;;5051470;28;20543;-71
2021/01/12 01:53:40;;;;;;;22.33;11.82;;;1.10;95.60;;;;;;5051307;28;20033;-71
2021/01/12 01:56:06;;;;;;;27.38;13.00;;;1.10;95.50;;;;;;5049632;28;20082;-72
2021/01/12 01:58:37;;;;;;;23.60;13.00;;;1.20;96.00;;;;;;5049524;28;20035;-73
2021/01/12 02:01:03;;;;;;;25.98;13.07;;;1.10;96.00;;;;;;5051003;28;20471;-71
2021/01/12 02:03:35;;;;;;;23.13;12.60;;;1.10;96.40;;;;;;5050907;28;20071;-71
2021/01/12 02:06:16;;;;;;;26.63;12.98;;;1.20;95.50;;;;;;5049276;28;20021;-72
2021/01/12 02:09:01;;;;;;;27.83;14.30;;;1.10;96.60;;;;;;5050922;28;20029;-72
2021/01/12 02:11:29;;;;;;;25.33;13.50;;;1.00;96.60;;;;;;5050964;28;20025;-71
2021/01/12 02:14:03;;;;;;;24.17;12.73;;;1.00;96.60;;;;;;5050993;28;20029;-72
2021/01/12 02:16:29;;;;;;;22.80;12.25;;;1.00;96.60;;;;;;5050446;28;20029;-73
2021/01/12 02:18:59;;;;;;;24.83;12.75;;;1.00;96.60;;;;;;5050663;28;20052;-71
2021/01/12 02:21:31;;;;;;;25.27;12.52;;;1.20;96.20;;;;;;5051230;28;20025;-71
2021/01/12 02:23:58;;;;;;;23.73;11.35;;;1.30;95.90;;;;;;5050794;28;20059;-71
2021/01/12 02:26:25;;;;;;;16.92;8.82;;;1.50;94.90;;;;;;5050010;28;20017;-72
2021/01/12 02:28:51;;;;;;;19.10;10.38;;;1.60;94.50;;;;;;5050632;28;20021;-72
2021/01/12 02:31:16;;;;;;;22.80;11.38;;;1.60;94.80;;;;;;5049373;28;20456;-72
2021/01/12 02:33:47;;;;;;;23.75;10.43;;;1.60;95.00;;;;;;5050668;28;20032;-73
2021/01/12 02:36:15;;;;;;;20.15;9.85;;;1.60;94.70;;;;;;5050087;28;20078;-72
2021/01/12 02:38:41;;;;;;;21.10;10.50;;;1.60;94.80;;;;;;5050574;28;20057;-72
2021/01/12 02:41:14;;;;;;;20.35;10.13;;;1.70;94.40;;;;;;5049178;28;20102;-71
2021/01/12 02:43:41;;;;;;;20.13;10.85;;;1.80;94.60;;;;;;5050583;28;20025;-72
2021/01/12 02:46:08;;;;;;;21.45;11.05;;;1.80;94.70;;;;;;5049940;28;20608;-71
2021/01/12 02:48:34;;;;;;;19.95;11.18;;;1.70;94.80;;;;;;5050490;28;20017;-72
2021/01/12 02:51:00;;;;;;;23.30;12.25;;;1.70;95.30;;;;;;5049341;28;20032;-72
2021/01/12 02:53:25;;;;;;;18.45;9.52;;;1.60;95.60;;;;;;5049292;28;20029;-72
2021/01/12 02:55:51;;;;;;;19.98;11.25;;;1.70;95.30;;;;;;5049274;28;20487;-72
2021/01/12 02:58:16;;;;;;;20.60;11.25;;;1.70;95.20;;;;;;5048533;28;20552;-72
2021/01/12 03:00:42;;;;;;;14.25;7.38;;;1.70;95.80;;;;;;5052657;28;20427;-72
2021/01/12 03:03:08;;;;;;;22.50;11.80;;;1.60;96.10;;;;;;5054199;28;20025;-72
2021/01/12 03:05:34;;;;;;;17.88;8.65;;;1.70;96.40;;;;;;5054194;28;20022;-72
2021/01/12 03:08:00;;;;;;;19.60;10.93;;;1.80;96.40;;;;;;5053470;28;20464;-72
2021/01/12 03:10:25;;;;;;;22.63;11.63;;;1.80;97.10;;;;;;5052690;28;20033;-71
2021/01/12 03:12:51;;;;;;;23.95;12.88;;;1.70;97.40;;;;;;5054067;28;20021;-72
2021/01/12 03:15:16;;;;;;;23.48;12.73;;;1.60;97.90;;;;;;5053986;28;20044;-72
2021/01/12 03:17:42;;;;;;;31.00;13.60;;;1.50;98.30;;;;;;5052064;28;20379;-72
2021/01/12 03:20:08;;;;;;;22.75;12.75;;;1.50;98.80;;;;;;5052472;28;20033;-73
2021/01/12 03:22:33;;;;;;;26.25;13.52;;;1.50;99.20;;;;;;5054194;28;20405;-72
2021/01/12 03:24:59;;;;;;;22.50;12.52;;;1.40;99.70;;;;;;5052671;28;20021;-71
2021/01/12 03:27:24;;;;;;;21.42;10.20;;;1.50;99.60;;;;;;5051933;28;20021;-73
2021/01/12 03:29:50;;;;;;;26.98;12.45;;;1.60;99.20;;;;;;5052420;28;20021;-72
2021/01/12 03:32:15;;;;;;;26.63;13.80;;;1.60;99.60;;;;;;5052542;28;20028;-72
2021/01/12 03:34:41;;;;;;;24.73;12.30;;;1.50;99.90;;;;;;5053762;28;20052;-72
2021/01/12 03:37:06;;;;;;;23.08;12.43;;;1.60;99.40;;;;;;5051720;28;20115;-72
2021/01/12 03:39:32;;;;;;;23.58;12.65;;;1.70;99.10;;;;;;5052227;28;20056;-73
2021/01/12 03:41:57;;;;;;;24.50;12.93;;;1.70;99.20;;;;;;5051036;28;20122;-72
2021/01/12 03:44:23;;;;;;;19.33;10.80;;;1.70;99.00;;;;;;5053549;28;20036;-72
2021/01/12 03:46:48;;;;;;;24.75;11.77;;;1.70;98.20;;;;;;5052798;28;20021;-73
2021/01/12 03:49:14;;;;;;;18.30;8.90;;;1.80;98.30;;;;;;5053446;28;20590;-72
2021/01/12 03:51:39;;;;;;;19.25;10.40;;;1.80;98.50;;;;;;5053402;28;20442;-72
2021/01/12 03:54:05;;;;;;;21.48;10.30;;;1.70;98.60;;;;;;5053355;28;20499;-73
2021/01/12 03:56:30;;;;;;;21.23;10.50;;;1.70;99.10;;;;;;5052585;28;20025;-72
2021/01/12 03:58:56;;;;;;;19.23;10.20;;;1.70;99.20;;;;;;5051682;28;20139;-72
2021/01/12 04:01:21;;;;;;;18.73;9.15;;;1.70;99.90;;;;;;5053037;28;20104;-73
2021/01/12 04:03:47;;;;;;;17.33;9.68;;;1.60;99.70;;;;;;5053077;28;20021;-72
2021/01/12 04:06:17;;;;;;;16.48;8.75;;;1.70;99.70;;;;;;5051059;28;20108;-72
2021/01/12 04:08:44;;;;;;;20.42;10.60;;;1.80;99.90;;;;;;5052659;28;20021;-73
2021/01/12 04:11:12;;;;;;;18.48;8.90;;;1.60;99.90;;;;;;5052365;28;20034;-72
2021/01/12 04:13:37;;;;;;;15.85;8.02;;;1.70;99.90;;;;;;5052881;28;20475;-72
2021/01/12 04:16:03;;;;;;;22.58;10.18;;;1.70;99.90;;;;;;5052301;28;20048;-72
2021/01/12 04:18:29;;;;;;;15.98;8.57;;;1.60;99.90;;;;;;5052498;28;20033;-72
2021/01/12 04:20:54;;;;;;;16.23;8.18;;;1.60;99.90;;;;;;5052686;28;20480;-72
2021/01/12 04:23:20;;;;;;;13.43;7.45;;;1.60;99.90;;;;;;5051494;28;20033;-72
2021/01/12 04:25:46;;;;;;;11.85;6.22;;;1.70;99.60;;;;;;5052596;28;20109;-71
2021/01/12 04:28:11;;;;;;;16.75;8.20;;;1.80;99.30;;;;;;5051922;28;20057;-72
2021/01/12 04:30:37;;;;;;;12.80;7.00;;;1.80;99.00;;;;;;5051107;28;20086;-72
2021/01/12 04:33:02;;;;;;;15.93;7.45;;;1.70;99.30;;;;;;5051242;28;20029;-72
2021/01/12 04:35:29;;;;;;;13.65;7.15;;;1.80;99.00;;;;;;5052511;28;20644;-72
2021/01/12 04:37:55;;;;;;;12.60;6.55;;;1.80;98.90;;;;;;5050555;28;20028;-72
2021/01/12 04:40:20;;;;;;;11.88;6.20;;;1.90;98.30;;;;;;5052247;28;20391;-72
2021/01/12 04:42:46;;;;;;;12.15;6.22;;;1.90;98.20;;;;;;5051128;28;20021;-72
2021/01/12 04:45:11;;;;;;;11.95;6.35;;;1.90;98.50;;;;;;5051029;28;20025;-72
2021/01/12 04:47:37;;;;;;;9.73;4.32;;;1.80;98.90;;;;;;5051706;28;20033;-72
2021/01/12 04:50:04;;;;;;;9.13;4.63;;;1.90;98.70;;;;;;5051219;28;20098;-74
2021/01/12 04:52:30;;;;;;;11.50;5.97;;;1.80;99.20;;;;;;5052154;28;20025;-72
2021/01/12 04:55:01;;;;;;;12.05;7.20;;;1.80;99.90;;;;;;5050877;28;20078;-72
2021/01/12 04:57:27;;;;;;;11.27;6.18;;;1.70;99.90;;;;;;5051573;28;20032;-72
2021/01/12 04:59:53;;;;;;;13.35;6.45;;;1.70;99.90;;;;;;5050594;28;20094;-72
2021/01/12 05:02:19;;;;;;;10.90;4.32;;;1.70;99.90;;;;;;5050643;28;20024;-72
2021/01/12 05:04:44;;;;;;;11.30;6.13;;;1.70;99.90;;;;;;5052022;28;20365;-72
2021/01/12 05:07:10;;;;;;;8.00;3.85;;;1.70;99.90;;;;;;5051290;28;20021;-72
2021/01/12 05:09:38;;;;;;;10.20;5.43;;;1.80;99.90;;;;;;5051929;28;20021;-72
2021/01/12 05:12:05;;;;;;;9.23;4.95;;;1.80;99.90;;;;;;5050830;28;20025;-72
2021/01/12 05:14:34;;;;;;;9.45;4.93;;;1.80;99.90;;;;;;5050608;28;20040;-71
2021/01/12 05:17:03;;;;;;;10.18;5.05;;;1.70;99.90;;;;;;5051220;28;20048;-72
2021/01/12 05:19:32;;;;;;;7.82;4.03;;;1.80;99.30;;;;;;5050479;28;20036;-72
2021/01/12 05:22:01;;;;;;;9.43;4.40;;;1.90;99.10;;;;;;5050928;28;20021;-72
2021/01/12 05:24:27;;;;;;;9.98;5.15;;;1.90;99.30;;;;;;5051739;28;20053;-72
2021/01/12 05:27:04;;;;;;;9.98;4.85;;;1.90;99.30;;;;;;5049674;28;20017;-72
2021/01/12 05:29:32;;;;;;;8.60;4.55;;;2.00;98.70;;;;;;5051414;28;20025;-72
2021/01/12 05:32:00;;;;;;;9.20;4.65;;;2.00;98.50;;;;;;5050261;28;20418;-72
2021/01/12 05:34:28;;;;;;;8.05;4.40;;;2.10;98.50;;;;;;5051429;28;20524;-72
2021/01/12 05:36:56;;;;;;;7.72;3.90;;;2.10;98.50;;;;;;5050746;28;20039;-72
2021/01/12 05:39:23;;;;;;;6.03;2.60;;;2.20;97.80;;;;;;5050012;28;20045;-71
2021/01/12 05:41:51;;;;;;;8.75;4.10;;;2.20;98.30;;;;;;5049844;28;20029;-72
2021/01/12 05:44:19;;;;;;;7.07;3.15;;;2.10;98.70;;;;;;5051181;28;20096;-72
2021/01/12 05:46:46;;;;;;;8.35;3.90;;;2.10;99.10;;;;;;5049279;28;20028;-72
2021/01/12 05:49:12;;;;;;;7.80;3.80;;;2.10;99.90;;;;;;5050954;28;20499;-72
2021/01/12 05:51:48;;;;;;;6.63;3.10;;;2.10;99.80;;;;;;5049835;28;20029;-72
2021/01/12 05:54:37;;;;;;;8.57;3.05;;;2.10;99.90;;;;;;5051176;28;20025;-72
2021/01/12 05:57:07;;;;;;;8.57;3.85;;;2.00;99.90;;;;;;5049127;28;20111;-72
2021/01/12 05:59:35;;;;;;;9.27;4.40;;;2.00;99.90;;;;;;5049614;28;20519;-72
2021/01/12 06:02:08;;;;;;;7.28;3.10;;;1.90;99.90;;;;;;5049590;28;20055;-73
2021/01/12 06:04:34;;;;;;;6.82;3.10;;;2.00;99.90;;;;;;5051100;28;20028;-72
2021/01/12 06:07:01;;;;;;;8.02;3.65;;;2.00;99.90;;;;;;5050397;28;20036;-72
2021/01/12 06:09:26;;;;;;;7.47;3.58;;;2.00;99.90;;;;;;5049640;28;20050;-72
2021/01/12 06:11:57;;;;;;;8.18;4.35;;;2.00;99.90;;;;;;5049701;28;20029;-72
2021/01/12 06:14:26;;;;;;;9.40;4.40;;;2.00;99.90;;;;;;5050862;28;20032;-72
2021/01/12 06:16:52;;;;;;;8.07;4.05;;;2.00;99.90;;;;;;5048833;28;20121;-71
2021/01/12 06:19:18;;;;;;;11.75;6.47;;;1.90;99.90;;;;;;5049510;28;20087;-71
2021/01/12 06:21:56;;;;;;;7.10;3.80;;;1.90;99.90;;;;;;5050722;28;20079;-71
2021/01/12 06:24:27;;;;;;;7.90;3.97;;;2.00;99.90;;;;;;5049881;28;20116;-79
2021/01/12 06:26:54;;;;;;;7.93;4.13;;;2.00;99.90;;;;;;5049088;28;20021;-72
2021/01/12 06:29:20;;;;;;;7.80;3.85;;;2.00;99.90;;;;;;5050728;28;20025;-72
2021/01/12 06:31:49;;;;;;;8.68;4.22;;;2.00;99.90;;;;;;5049511;28;20021;-73
2021/01/12 06:34:19;;;;;;;7.13;3.27;;;2.00;99.90;;;;;;5053995;28;20645;-73
2021/01/12 06:36:53;;;;;;;8.75;4.15;;;2.00;99.90;;;;;;5054809;28;20282;-72
2021/01/12 06:39:27;;;;;;;6.45;2.95;;;2.00;99.90;;;;;;5054713;28;20106;-72
2021/01/12 06:41:53;;;;;;;7.20;3.40;;;2.00;99.90;;;;;;5053308;28;20116;-72
2021/01/12 06:44:26;;;;;;;9.38;5.43;;;1.90;99.90;;;;;;5053103;28;20056;-72
2021/01/12 06:46:53;;;;;;;4.65;2.03;;;1.90;99.90;;;;;;5052426;28;20036;-72
2021/01/12 06:49:24;;;;;;;5.68;2.58;;;2.00;99.90;;;;;;5052969;28;20116;-71
2021/01/12 06:52:10;;;;;;;9.25;3.38;;;2.10;99.90;;;;;;5054517;28;20064;-72
2021/01/12 06:54:41;;;;;;;6.82;2.45;;;2.10;99.90;;;;;;5054656;28;20083;-72
2021/01/12 06:57:22;;;;;;;5.32;2.50;;;2.20;99.90;;;;;;5053956;28;20100;-72
2021/01/12 06:59:52;;;;;;;5.65;2.15;;;2.20;99.90;;;;;;5053203;28;20135;-72
2021/01/12 07:02:18;;;;;;;3.92;2.28;;;2.20;99.90;;;;;;5054535;28;20061;-72
2021/01/12 07:04:57;;;;;;;5.85;2.08;;;2.30;99.90;;;;;;5053241;28;20094;-72
2021/01/12 07:07:24;;;;;;;6.50;2.47;;;2.30;99.90;;;;;;5053750;28;20071;-72
2021/01/12 07:10:00;;;;;;;4.00;1.58;;;2.30;99.90;;;;;;5054225;28;20025;-72
2021/01/12 07:12:28;;;;;;;8.00;1.90;;;2.30;99.90;;;;;;5054141;28;20017;-72
2021/01/12 07:15:07;;;;;;;4.15;1.85;;;2.30;99.90;;;;;;5054125;28;20099;-72
2021/01/12 07:17:54;;;;;;;5.22;1.75;;;2.40;99.90;;;;;;5053302;28;20017;-73
2021/01/12 07:20:23;;;;;;;27.08;23.33;;;2.40;99.90;;;;;;5053550;28;20037;-71
2021/01/12 07:23:05;;;;;;;19.58;14.82;;;2.40;99.90;;;;;;5052584;28;20546;-72
2021/01/12 07:25:42;;;;;;;4.45;2.25;;;2.40;99.90;;;;;;5052526;28;20031;-72
2021/01/12 07:28:14;;;;;;;2.65;1.10;;;2.50;99.50;;;;;;5052014;28;20406;-73
2021/01/12 07:30:42;;;;;;;3.97;1.70;;;2.50;99.70;;;;;;5053733;28;20442;-72
2021/01/12 07:33:17;;;;;;;5.57;1.98;;;2.60;99.30;;;;;;5052499;28;20033;-72
2021/01/12 07:35:47;;;;;;;5.97;2.55;;;2.60;99.40;;;;;;5053571;28;20029;-73
2021/01/12 07:38:14;;;;;;;;;;;2.60;99.80;;;;;;5052222;28;20028;-71
2021/01/12 07:40:39;;;;;;;5.15;1.73;;;2.70;98.90;;;;;;5053346;28;19916;-72
2021/01/12 07:43:05;;;;;;;2.47;1.00;;;2.60;99.60;;;;;;5052239;28;20024;-72
2021/01/12 07:45:35;;;;;;;3.45;1.48;;;2.70;98.70;;;;;;5052584;28;20032;-72
2021/01/12 07:48:02;;;;;;;3.55;1.40;;;2.80;98.60;;;;;;5051485;28;20013;-73
2021/01/12 07:50:30;;;;;;;3.92;1.55;;;2.80;98.10;;;;;;5051990;28;20035;-72
2021/01/12 07:52:57;;;;;;;3.33;1.45;;;2.80;99.00;;;;;;5043671;28;20029;-73
2021/01/12 07:55:23;;;;;;;1.30;0.88;;;2.80;99.10;;;;;;5033375;28;20373;-72
2021/01/12 07:57:50;;;;;;;2.10;1.10;;;2.90;98.90;;;;;;5032699;28;20033;-72
2021/01/12 08:00:16;;;;;;;3.50;1.92;;;2.70;99.60;;;;;;5033101;28;20065;-72
2021/01/12 08:02:44;;;;;;;4.95;1.90;;;2.70;99.90;;;;;;5033182;28;20476;-72
2021/01/12 08:05:11;;;;;;;5.78;2.63;;;2.70;99.90;;;;;;5039866;28;20545;-72
2021/01/12 08:07:37;;;;;;;4.90;2.40;;;2.70;99.90;;;;;;5052367;28;20041;-73
2021/01/12 08:10:07;;;;;;;3.88;1.88;;;2.70;99.90;;;;;;5052803;28;20542;-72
2021/01/12 08:12:33;;;;;;;6.50;3.05;;;2.70;99.90;;;;;;5051625;28;20112;-72
2021/01/12 08:15:11;;;;;;;6.13;2.72;;;2.70;99.90;;;;;;5052839;28;20100;-72
2021/01/12 08:17:44;;;;;;;5.47;3.08;;;2.80;99.90;;;;;;5050879;28;20017;-73
2021/01/12 08:20:10;;;;;;;4.93;2.67;;;2.70;99.90;;;;;;5051448;28;20368;-72
2021/01/12 08:22:36;;;;;;;5.05;2.17;;;2.60;99.90;;;;;;5051352;28;20021;-73
2021/01/12 08:25:08;;;;;;;3.20;1.33;;;2.60;99.90;;;;;;5051473;28;20021;-73
2021/01/12 08:27:34;;;;;;;4.45;1.10;;;2.60;99.90;;;;;;5050776;28;20107;-72
2021/01/12 08:30:09;;;;;;;5.68;2.70;;;2.60;99.90;;;;;;5051330;28;20108;-73
2021/01/12 08:32:39;;;;;;;3.83;1.55;;;2.50;99.90;;;;;;5032531;28;20026;-72
2021/01/12 08:35:11;;;;;;;7.93;4.40;;;2.50;99.90;;;;;;5031634;28;20014;-72
2021/01/12 08:37:39;;;;;;;2.30;1.10;;;2.50;99.90;;;;;;5041806;28;20073;-72
2021/01/12 08:40:08;;;;;;;4.00;1.70;;;2.50;99.90;;;;;;5052169;28;20392;-73
2021/01/12 08:42:38;;;;;;;1.80;0.63;;;2.50;99.90;;;;;;5047332;28;20017;-72
2021/01/12 08:45:11;;;;;;;6.18;2.75;;;2.50;99.90;;;;;;5052372;28;20387;-72
2021/01/12 08:47:36;;;;;;;6.30;2.55;;;2.50;99.90;;;;;;5050501;28;20032;-72
2021/01/12 08:50:07;;;;;;;23.10;7.80;;;2.60;99.90;;;;;;5052170;28;20495;-73
2021/01/12 08:52:34;;;;;;;7.30;3.25;;;2.60;99.90;;;;;;5052144;28;20099;-72
2021/01/12 08:55:00;;;;;;;8.60;4.25;;;2.60;99.90;;;;;;5052130;28;20048;-72
2021/01/12 08:57:26;;;;;;;3.53;1.60;;;2.60;99.90;;;;;;5050191;28;20025;-72
2021/01/12 08:59:51;;;;;;;3.97;1.65;;;2.70;99.90;;;;;;5050623;28;20033;-72
2021/01/12 09:02:18;;;;;;;3.45;1.75;;;2.60;99.90;;;;;;5051887;28;20547;-72
2021/01/12 09:04:44;;;;;;;2.72;1.20;;;2.70;99.90;;;;;;5051990;28;20028;-72
2021/01/12 09:07:10;;;;;;;5.35;2.85;;;2.80;99.90;;;;;;5050087;28;20028;-72
2021/01/12 09:09:36;;;;;;;3.80;1.70;;;2.70;99.90;;;;;;5050295;28;20025;-72
2021/01/12 09:12:03;;;;;;;2.92;1.40;;;2.80;99.90;;;;;;5050783;28;20029;-72
2021/01/12 09:14:32;;;;;;;3.28;1.45;;;2.90;99.90;;;;;;5050722;28;20032;-72
2021/01/12 09:17:03;;;;;;;4.85;1.15;;;2.90;99.90;;;;;;5051381;28;20029;-72
2021/01/12 09:19:37;;;;;;;2.95;1.20;;;3.00;99.90;;;;;;5051915;28;20075;-72
2021/01/12 09:22:17;;;;;;;3.90;1.40;;;3.00;99.90;;;;;;5051852;28;20100;-73
2021/01/12 09:24:49;;;;;;;3.47;1.63;;;3.00;99.80;;;;;;5051913;28;20553;-73
2021/01/12 09:27:20;;;;;;;3.63;1.95;;;2.90;99.90;;;;;;5049857;28;20116;-74
2021/01/12 09:29:46;;;;;;;2.40;1.02;;;2.90;99.90;;;;;;5050302;28;20056;-74
2021/01/12 09:32:12;;;;;;;3.05;1.52;;;2.90;99.90;;;;;;5051403;28;20487;-72
2021/01/12 09:34:41;;;;;;;2.63;1.10;;;3.00;99.90;;;;;;5051448;28;20124;-73
2021/01/12 09:37:17;;;;;;;2.55;1.20;;;2.90;99.90;;;;;;5050715;28;20546;-73
2021/01/12 09:39:44;;;;;;;4.95;2.22;;;2.90;99.90;;;;;;5051276;28;20036;-73
2021/01/12 09:42:10;;;;;;;4.38;1.35;;;2.90;99.90;;;;;;5049809;28;20025;-73
2021/01/12 09:44:35;;;;;;;5.22;2.28;;;2.90;99.90;;;;;;5050075;28;20110;-73
2021/01/12 09:47:02;;;;;;;1.80;0.60;;;2.90;99.90;;;;;;5049398;28;20060;-73
2021/01/12 09:49:27;;;;;;;2.67;1.20;;;2.90;99.90;;;;;;5049905;28;20048;-73
2021/01/12 09:51:53;;;;;;;8.75;4.55;;;3.00;99.90;;;;;;5051024;28;20514;-73
2021/01/12 09:54:18;;;;;;;3.15;1.02;;;3.00;99.90;;;;;;5051160;28;20033;-74
2021/01/12 09:56:44;;;;;;;3.45;1.65;;;3.20;99.90;;;;;;5049323;28;20029;-77
2021/01/12 09:59:09;;;;;;;8.63;4.35;;;3.20;99.90;;;;;;5051538;28;20033;-74
2021/01/12 10:01:35;;;;;;;1.73;0.60;;;3.30;99.90;;;;;;5049622;28;20029;-73
2021/01/12 10:04:00;;;;;;;6.38;3.53;;;3.40;99.90;;;;;;5051012;28;20021;-73
2021/01/12 10:06:29;;;;;;;1.23;0.68;;;3.40;99.90;;;;;;5049522;28;20021;-73
2021/01/12 10:08:55;;;;;;;2.17;0.80;;;3.40;99.60;;;;;;5049370;28;20021;-77
2021/01/12 10:11:23;;;;;;;35.30;16.15;;;3.30;99.90;;;;;;5050000;28;20031;-73
2021/01/12 10:13:49;;;;;;;9.38;7.53;;;3.30;99.90;;;;;;5051802;28;20025;-76
2021/01/12 10:16:24;;;;;;;6.20;3.78;;;3.20;99.90;;;;;;5050264;28;20057;-73
2021/01/12 10:18:50;;;;;;;1.40;0.65;;;3.40;99.80;;;;;;5049492;28;20060;-73
2021/01/12 10:21:17;;;;;;;0.95;0.50;;;3.30;99.90;;;;;;5050076;28;20048;-76
2021/01/12 10:23:43;;;;;;;1.75;1.05;;;3.40;99.90;;;;;;5050116;28;20025;-75
2021/01/12 10:26:16;;;;;;;1.00;0.50;;;3.40;99.90;;;;;;5049477;28;20021;-77
2021/01/12 10:28:42;;;;;;;4.57;1.95;;;3.40;99.90;;;;;;5049335;28;20025;-75
2021/01/12 10:31:13;;;;;;;2.45;0.93;;;3.40;99.90;;;;;;5049705;28;20132;-74
2021/01/12 10:33:39;;;;;;;6.25;0.75;;;3.30;99.90;;;;;;5050741;28;20021;-74
2021/01/12 10:36:05;;;;;;;3.88;1.55;;;3.20;99.90;;;;;;5048993;28;20032;-75
2021/01/12 10:38:30;;;;;;;9.35;3.88;;;3.20;99.90;;;;;;5049270;28;20479;-74
2021/01/12 10:40:56;;;;;;;5.10;1.85;;;3.20;99.90;;;;;;5049834;28;20198;-75
2021/01/12 10:43:22;;;;;;;3.35;1.20;;;3.20;99.90;;;;;;5049511;28;20029;-74
2021/01/12 10:45:47;;;;;;;4.32;1.85;;;3.20;99.90;;;;;;5048016;28;20025;-74
2021/01/12 10:48:13;;;;;;;4.63;1.00;;;3.20;99.90;;;;;;5050078;28;20383;-74
2021/01/12 10:50:38;;;;;;;5.18;1.58;;;3.20;99.90;;;;;;5049215;28;20492;-74
2021/01/12 10:53:04;;;;;;;4.00;1.38;;;3.10;99.90;;;;;;5049222;28;20021;-73
2021/01/12 10:55:29;;;;;;;1.55;0.65;;;3.10;99.90;;;;;;5049277;28;20029;-73
2021/01/12 10:57:55;;;;;;;2.00;0.63;;;3.10;99.90;;;;;;5048675;28;20139;-74
2021/01/12 11:00:21;;;;;;;1.20;0.47;;;3.00;99.90;;;;;;5047368;28;20033;-74
2021/01/12 11:02:47;;;;;;;1.60;0.77;;;3.00;99.90;;;;;;5049201;28;20071;-73
2021/01/12 11:05:13;;;;;;;0.77;0.50;;;3.10;99.90;;;;;;5046131;28;20021;-73
2021/01/12 11:07:39;;;;;;;1.05;0.40;;;3.10;99.90;;;;;;5038526;28;20025;-74
2021/01/12 11:10:06;;;;;;;1.70;0.77;;;3.10;99.90;;;;;;5038475;28;20098;-74
2021/01/12 11:12:31;;;;;;;1.20;0.40;;;3.10;99.90;;;;;;5030456;28;20025;-73
2021/01/12 11:14:58;;;;;;;1.13;0.50;;;3.10;99.90;;;;;;5029174;28;20679;-74
2021/01/12 11:17:24;;;;;;;3.53;1.23;;;3.10;99.90;;;;;;5030574;28;20593;-74
2021/01/12 11:19:51;;;;;;;1.70;0.90;;;3.10;99.90;;;;;;5050816;28;20811;-74
2021/01/12 11:22:26;;;;;;;7.32;4.53;;;3.10;99.90;;;;;;5044287;28;20044;-73
2021/01/12 11:25:00;;;;;;;2.20;1.10;;;3.20;99.90;;;;;;5050400;28;20028;-74
2021/01/12 11:27:26;;;;;;;5.22;2.53;;;3.20;99.90;;;;;;5052082;28;20067;-75
2021/01/12 11:29:53;;;;;;;5.65;2.25;;;3.20;99.90;;;;;;5052530;28;20499;-75
2021/01/12 11:32:19;;;;;;;3.15;1.52;;;3.20;99.90;;;;;;5053754;28;20108;-75
2021/01/12 11:34:45;;;;;;;5.88;3.40;;;3.20;99.90;;;;;;5052513;28;20116;-75
2021/01/12 11:37:11;;;;;;;4.13;2.40;;;3.20;99.90;;;;;;5051815;28;20035;-74
2021/01/12 11:39:37;;;;;;;4.93;2.80;;;3.20;99.90;;;;;;5053439;28;20365;-74
2021/01/12 11:42:05;;;;;;;5.55;2.65;;;3.20;99.90;;;;;;5052180;28;20032;-74
2021/01/12 11:44:31;;;;;;;2.55;0.60;;;3.20;99.90;;;;;;5052248;28;20024;-75
2021/01/12 11:46:56;;;;;;;8.15;3.33;;;3.20;99.90;;;;;;5051579;28;20063;-75
2021/01/12 11:49:22;;;;;;;3.45;1.20;;;3.20;99.90;;;;;;5052071;28;20044;-75
2021/01/12 11:51:51;;;;;;;4.18;1.08;;;3.20;99.90;;;;;;5053453;28;20453;-75
2021/01/12 11:54:18;;;;;;;2.40;0.70;;;3.20;99.90;;;;;;5052072;28;20021;-75
2021/01/12 11:56:56;;;;;;;2.75;0.88;;;3.10;99.90;;;;;;5051442;28;20053;-76
2021/01/12 11:59:26;;;;;;;8.07;3.53;;;3.20;99.90;;;;;;5053191;28;20492;-76
2021/01/12 12:01:55;;;;;;;2.95;1.15;;;3.20;99.90;;;;;;5052099;28;20029;-75
2021/01/12 12:04:23;;;;;;;3.42;1.80;;;3.20;99.90;;;;;;5053574;28;20024;-76
2021/01/12 12:06:54;;;;;;;28.13;8.77;;;3.20;99.90;;;;;;5052987;28;20096;-75
2021/01/12 12:09:22;;;;;;;3.83;1.48;;;3.30;99.90;;;;;;5053389;28;20021;-76
2021/01/12 12:11:48;;;;;;;3.38;1.65;;;3.30;99.90;;;;;;5051965;28;20033;-76
2021/01/12 12:14:14;;;;;;;4.38;2.13;;;3.40;99.90;;;;;;5051953;28;20063;-75
2021/01/12 12:16:46;;;;;;;2.72;1.05;;;3.40;99.90;;;;;;5051252;28;20028;-75
2021/01/12 12:19:14;;;;;;;1.95;0.65;;;3.50;99.90;;;;;;5052991;28;20017;-76
2021/01/12 12:21:47;;;;;;;1.35;0.60;;;3.60;99.90;;;;;;5052967;28;20029;-76
2021/01/12 12:24:14;;;;;;;5.78;2.30;;;3.60;99.90;;;;;;5051727;28;20021;-74
2021/01/12 12:26:40;;;;;;;4.32;1.58;;;3.70;99.90;;;;;;5052208;28;20100;-75
2021/01/12 12:29:05;;;;;;;1.90;0.65;;;3.70;99.90;;;;;;5052607;28;20547;-74
2021/01/12 12:31:31;;;;;;;1.63;0.55;;;3.70;99.90;;;;;;5051097;28;20025;-74
2021/01/12 12:33:56;;;;;;;2.38;0.88;;;3.70;99.90;;;;;;5051188;28;20032;-75
2021/01/12 12:36:22;;;;;;;1.23;0.57;;;3.70;99.90;;;;;;5050774;28;20067;-75
2021/01/12 12:38:47;;;;;;;0.63;0.30;;;3.70;99.90;;;;;;5052586;28;20093;-75
2021/01/12 12:41:17;;;;;;;3.10;1.20;;;3.60;99.90;;;;;;5051224;28;20593;-75
2021/01/12 12:43:44;;;;;;;1.95;0.88;;;3.50;99.90;;;;;;5051379;28;20028;-75
2021/01/12 12:46:11;;;;;;;4.13;1.25;;;3.60;99.90;;;;;;5050625;28;20083;-75
2021/01/12 12:48:37;;;;;;;6.40;3.92;;;3.60;99.90;;;;;;5051188;28;20032;-76
2021/01/12 12:51:04;;;;;;;4.35;2.42;;;3.70;99.90;;;;;;5051183;28;20033;-75
2021/01/12 12:53:31;;;;;;;6.85;4.75;;;3.70;99.90;;;;;;5050986;28;20033;-75